createdAt,value
2018-06-02T00:00:34.840Z,5.80
2018-06-02T00:01:35.030Z,6.50
2018-06-02T00:02:35.240Z,6.80
2018-06-02T00:03:35.578Z,5.90
2018-06-02T00:04:35.669Z,6.30
2018-06-02T00:05:35.869Z,6.00
2018-06-02T00:06:36.080Z,6.90
2018-06-02T00:07:36.285Z,6.90
2018-06-02T00:08:36.502Z,7.00
2018-06-02T00:09:36.684Z,6.90
2018-06-02T00:10:36.898Z,7.60
2018-06-02T00:11:37.108Z,7.50
2018-06-02T00:12:37.322Z,6.90
2018-06-02T00:13:37.528Z,6.80
2018-06-02T00:14:37.755Z,7.30
2018-06-02T00:15:37.952Z,6.60
2018-06-02T00:16:38.179Z,7.00
2018-06-02T00:17:38.387Z,6.80
2018-06-02T00:18:38.587Z,7.10
2018-06-02T00:19:38.766Z,7.80
2018-06-02T00:22:10.951Z,7.50
2018-06-02T00:23:11.127Z,7.10
2018-06-02T00:24:11.353Z,7.40
2018-06-02T00:25:11.540Z,8.10
2018-06-02T00:26:11.727Z,7.80
2018-06-02T00:27:11.931Z,9.00
2018-06-02T00:28:12.141Z,9.30
2018-06-02T00:29:12.358Z,8.30
2018-06-02T00:30:12.570Z,9.00
2018-06-02T00:31:12.791Z,8.90
2018-06-02T00:32:13.035Z,8.20
2018-06-02T00:33:13.247Z,9.20
2018-06-02T00:34:13.459Z,9.40
2018-06-02T00:35:13.670Z,9.10
2018-06-02T00:36:13.879Z,8.50
2018-06-02T00:37:14.090Z,9.30
2018-06-02T00:38:14.291Z,9.30
2018-06-02T00:39:14.480Z,8.20
2018-06-02T00:40:14.677Z,9.00
2018-06-02T00:41:14.859Z,8.80
2018-06-02T00:42:15.060Z,8.30
2018-06-02T00:43:15.278Z,8.10
2018-06-02T00:44:15.493Z,8.10
2018-06-02T00:45:15.694Z,8.10
2018-06-02T00:46:15.886Z,9.00
2018-06-02T00:47:16.088Z,8.40
2018-06-02T00:48:16.278Z,9.00
2018-06-02T00:49:16.479Z,7.40
2018-06-02T00:50:16.666Z,8.40
2018-06-02T00:51:16.880Z,8.10
2018-06-02T00:52:17.095Z,8.60
2018-06-02T00:53:17.283Z,8.70
2018-06-02T00:54:17.481Z,8.80
2018-06-02T00:55:17.675Z,7.90
2018-06-02T00:56:17.859Z,8.10
2018-06-02T00:57:18.041Z,8.20
2018-06-02T00:58:18.229Z,9.10
2018-06-02T00:59:18.440Z,8.50
2018-06-02T01:00:18.642Z,9.60
2018-06-02T01:01:18.845Z,9.00
2018-06-02T01:02:19.064Z,9.00
2018-06-02T01:03:19.267Z,9.00
2018-06-02T01:04:19.481Z,9.20
2018-06-02T01:05:19.676Z,8.50
2018-06-02T01:06:19.876Z,8.70
2018-06-02T01:07:20.086Z,9.00
2018-06-02T01:08:20.302Z,8.70
2018-06-02T01:09:20.486Z,8.90
2018-06-02T01:10:20.678Z,8.60
2018-06-02T01:11:20.867Z,8.90
2018-06-02T01:12:21.057Z,8.90
2018-06-02T01:13:21.281Z,8.60
2018-06-02T01:14:21.468Z,8.20
2018-06-02T01:15:21.667Z,9.10
2018-06-02T01:16:21.877Z,9.40
2018-06-02T01:17:22.089Z,10.10
2018-06-02T01:18:22.268Z,10.50
2018-06-02T01:19:22.456Z,9.90
2018-06-02T01:20:22.648Z,10.30
2018-06-02T01:21:22.861Z,9.40
2018-06-02T01:22:23.052Z,9.90
2018-06-02T01:23:23.249Z,9.70
2018-06-02T01:24:23.450Z,9.60
2018-06-02T01:25:23.637Z,10.40
2018-06-02T01:26:23.840Z,9.00
2018-06-02T01:27:24.045Z,8.80
2018-06-02T01:28:24.241Z,10.10
2018-06-02T01:29:24.457Z,9.70
2018-06-02T01:30:24.690Z,9.50
2018-06-02T01:31:24.901Z,10.30
2018-06-02T01:32:25.100Z,9.40
2018-06-02T01:33:25.308Z,9.80
2018-06-02T01:34:25.524Z,9.40
2018-06-02T01:35:25.721Z,9.90
2018-06-02T01:36:25.918Z,10.10
2018-06-02T01:37:26.128Z,10.20
2018-06-02T01:38:26.318Z,9.60
2018-06-02T01:39:26.508Z,10.40
2018-06-02T01:40:26.689Z,10.20
2018-06-02T01:41:27.025Z,10.10
2018-06-02T01:42:27.104Z,10.10
2018-06-02T01:43:27.299Z,11.00
2018-06-02T01:44:27.512Z,10.20
2018-06-02T01:45:27.712Z,10.20
2018-06-02T01:46:27.925Z,11.40
2018-06-02T01:47:28.124Z,11.40
2018-06-02T01:48:28.330Z,11.70
2018-06-02T01:49:28.538Z,12.10
2018-06-02T01:50:28.734Z,11.80
2018-06-02T01:51:28.921Z,11.70
2018-06-02T01:52:29.142Z,11.90
2018-06-02T01:53:29.354Z,12.00
2018-06-02T01:54:29.541Z,12.20
2018-06-02T01:55:29.745Z,11.70
2018-06-02T01:56:29.949Z,11.10
2018-06-02T01:57:30.144Z,12.10
2018-06-02T01:58:30.327Z,12.10
2018-06-02T01:59:30.533Z,12.90
2018-06-02T02:00:30.725Z,13.10
2018-06-02T02:01:30.928Z,13.80
2018-06-02T02:02:31.145Z,14.10
2018-06-02T02:03:31.326Z,14.80
2018-06-02T02:04:31.526Z,15.80
2018-06-02T02:05:31.737Z,14.90
2018-06-02T02:06:31.945Z,15.60
2018-06-02T02:07:32.145Z,16.20
2018-06-02T02:08:32.351Z,16.50
2018-06-02T02:09:32.539Z,16.70
2018-06-02T02:10:32.777Z,14.70
2018-06-02T02:11:32.963Z,16.60
2018-06-02T02:12:33.150Z,16.40
2018-06-02T02:13:33.365Z,15.80
2018-06-02T02:14:33.560Z,16.70
2018-06-02T02:15:33.773Z,17.00
2018-06-02T02:16:33.980Z,15.10
2018-06-02T02:17:34.191Z,17.10
2018-06-02T02:18:34.387Z,16.30
2018-06-02T02:19:34.583Z,16.70
2018-06-02T02:20:34.763Z,16.90
2018-06-02T02:21:34.959Z,16.80
2018-06-02T02:22:35.159Z,16.80
2018-06-02T02:23:35.372Z,17.40
2018-06-02T02:24:35.571Z,17.70
2018-06-02T02:25:35.770Z,16.20
2018-06-02T02:26:35.959Z,17.00
2018-06-02T02:27:36.161Z,17.60
2018-06-02T02:28:36.357Z,18.90
2018-06-02T02:29:36.555Z,18.40
2018-06-02T02:30:36.762Z,19.40
2018-06-02T02:31:36.974Z,19.30
2018-06-02T02:32:37.176Z,18.30
2018-06-02T02:33:37.375Z,19.20
2018-06-02T02:34:37.588Z,19.50
2018-06-02T02:35:37.784Z,20.10
2018-06-02T02:36:37.993Z,20.00
2018-06-02T02:37:38.180Z,20.80
2018-06-02T02:38:38.391Z,21.30
2018-06-02T02:39:38.590Z,21.70
2018-06-02T02:40:38.813Z,21.60
2018-06-02T02:41:39.002Z,22.00
2018-06-02T02:42:39.190Z,22.10
2018-06-02T02:43:39.403Z,21.30
2018-06-02T02:44:39.608Z,23.80
2018-06-02T02:45:39.799Z,22.80
2018-06-02T02:46:39.988Z,22.10
2018-06-02T02:47:40.203Z,22.90
2018-06-02T02:48:40.409Z,21.90
2018-06-02T02:49:40.624Z,21.70
2018-06-02T02:50:40.815Z,24.30
2018-06-02T02:51:41.022Z,21.20
2018-06-02T02:52:41.218Z,23.20
2018-06-02T02:53:41.434Z,22.70
2018-06-02T02:54:41.621Z,23.70
2018-06-02T02:55:41.810Z,22.50
2018-06-02T02:56:42.045Z,24.40
2018-06-02T02:57:42.249Z,23.90
2018-06-02T02:58:42.435Z,24.40
2018-06-02T02:59:42.644Z,24.80
2018-06-02T03:00:42.861Z,23.80
2018-06-02T03:01:43.073Z,23.50
2018-06-02T03:02:43.284Z,24.20
2018-06-02T03:03:43.470Z,24.30
2018-06-02T03:04:43.683Z,24.20
2018-06-02T03:05:43.882Z,24.10
2018-06-02T03:06:44.094Z,24.50
2018-06-02T03:07:44.303Z,23.40
2018-06-02T03:08:44.491Z,24.20
2018-06-02T03:09:44.701Z,23.60
2018-06-02T03:10:44.885Z,22.70
2018-06-02T03:11:45.096Z,20.70
2018-06-02T03:12:45.351Z,21.70
2018-06-02T03:13:45.443Z,21.90
2018-06-02T03:14:45.641Z,22.20
2018-06-02T03:15:45.853Z,23.30
2018-06-02T03:16:46.058Z,23.00
2018-06-02T03:17:46.246Z,21.40
2018-06-02T03:18:46.436Z,21.50
2018-06-02T03:19:46.630Z,21.80
2018-06-02T03:22:20.516Z,24.00
2018-06-02T03:23:18.945Z,24.90
2018-06-02T03:24:19.154Z,24.80
2018-06-02T03:25:19.351Z,23.70
2018-06-02T03:26:19.536Z,26.90
2018-06-02T03:27:19.743Z,25.00
2018-06-02T03:28:19.945Z,27.10
2018-06-02T03:29:20.169Z,28.60
2018-06-02T03:30:20.353Z,26.20
2018-06-02T03:31:20.546Z,24.80
2018-06-02T03:32:20.725Z,27.40
2018-06-02T03:33:20.915Z,26.10
2018-06-02T03:35:53.028Z,26.60
2018-06-02T03:36:53.204Z,26.50
2018-06-02T03:37:53.400Z,27.60
2018-06-02T03:38:53.586Z,28.30
2018-06-02T03:39:53.800Z,27.50
2018-06-02T03:40:53.997Z,30.70
2018-06-02T03:41:54.191Z,28.50
2018-06-02T03:42:54.391Z,29.60
2018-06-02T03:43:54.597Z,28.50
2018-06-02T03:44:54.808Z,27.40
2018-06-02T03:45:54.998Z,28.70
2018-06-02T03:46:55.206Z,29.50
2018-06-02T03:47:55.434Z,28.80
2018-06-02T03:48:55.620Z,28.70
2018-06-02T03:49:55.828Z,28.70
2018-06-02T03:50:56.028Z,29.20
2018-06-02T03:51:56.226Z,29.40
2018-06-02T03:52:56.439Z,28.40
2018-06-02T03:53:56.648Z,30.10
2018-06-02T03:54:56.826Z,30.50
2018-06-02T03:55:57.026Z,28.40
2018-06-02T03:56:57.249Z,30.20
2018-06-02T03:57:57.458Z,30.90
2018-06-02T03:58:57.639Z,29.00
2018-06-02T03:59:57.850Z,29.70
2018-06-02T04:00:58.053Z,29.00
2018-06-02T04:01:58.263Z,27.00
2018-06-02T04:02:58.447Z,30.60
2018-06-02T04:03:58.656Z,28.80
2018-06-02T04:04:58.850Z,31.20
2018-06-02T04:05:59.067Z,30.10
2018-06-02T04:06:59.283Z,30.70
2018-06-02T04:07:59.526Z,28.00
2018-06-02T04:08:59.732Z,30.60
2018-06-02T04:09:59.923Z,30.40
2018-06-02T04:11:00.121Z,29.00
2018-06-02T04:12:00.320Z,29.30
2018-06-02T04:13:00.507Z,29.80
2018-06-02T04:14:00.715Z,30.30
2018-06-02T04:15:00.925Z,31.20
2018-06-02T04:16:01.137Z,30.10
2018-06-02T04:17:01.340Z,31.40
2018-06-02T04:18:01.529Z,30.30
2018-06-02T04:19:01.723Z,30.80
2018-06-02T04:20:01.921Z,28.50
2018-06-02T04:21:02.109Z,26.90
2018-06-02T04:22:02.312Z,27.30
2018-06-02T04:23:02.517Z,26.00
2018-06-02T04:24:02.718Z,25.20
2018-06-02T04:25:02.930Z,25.20
2018-06-02T04:26:03.193Z,26.70
2018-06-02T04:27:03.259Z,26.60
2018-06-02T04:28:03.469Z,25.10
2018-06-02T04:29:03.683Z,25.30
2018-06-02T04:30:03.882Z,26.10
2018-06-02T04:31:04.069Z,24.60
2018-06-02T04:32:04.259Z,26.50
2018-06-02T04:33:04.456Z,25.20
2018-06-02T04:34:04.663Z,24.70
2018-06-02T04:35:04.864Z,24.70
2018-06-02T04:36:05.073Z,23.70
2018-06-02T04:37:05.365Z,23.50
2018-06-02T04:38:05.441Z,24.60
2018-06-02T04:39:05.627Z,25.40
2018-06-02T04:40:05.841Z,24.10
2018-06-02T04:41:06.050Z,24.90
2018-06-02T04:42:06.262Z,21.60
2018-06-02T04:43:06.473Z,24.60
2018-06-02T04:44:06.676Z,24.10
2018-06-02T04:45:06.878Z,23.00
2018-06-02T04:46:07.066Z,22.70
2018-06-02T04:47:07.268Z,23.50
2018-06-02T04:48:07.467Z,23.40
2018-06-02T04:49:07.674Z,21.60
2018-06-02T04:50:07.866Z,24.30
2018-06-02T04:51:08.053Z,22.10
2018-06-02T04:52:08.245Z,22.30
2018-06-02T04:53:08.464Z,22.70
2018-06-02T04:54:08.645Z,22.30
2018-06-02T04:55:08.847Z,22.90
2018-06-02T04:56:09.041Z,22.30
2018-06-02T04:58:41.163Z,21.80
2018-06-02T04:59:41.373Z,23.30
2018-06-02T05:00:41.580Z,22.80
2018-06-02T05:01:41.768Z,22.90
2018-06-02T05:02:41.958Z,22.70
2018-06-02T05:03:42.150Z,23.00
2018-06-02T05:04:42.357Z,22.50
2018-06-02T05:05:42.573Z,23.30
2018-06-02T05:06:42.761Z,21.40
2018-06-02T05:07:42.971Z,22.30
2018-06-02T05:08:43.164Z,21.40
2018-06-02T05:09:43.367Z,23.00
2018-06-02T05:10:43.577Z,20.50
2018-06-02T05:11:43.787Z,21.10
2018-06-02T05:12:43.986Z,22.60
2018-06-02T05:13:44.207Z,22.30
2018-06-02T05:14:44.411Z,23.30
2018-06-02T05:15:44.636Z,21.20
2018-06-02T05:16:44.831Z,21.00
2018-06-02T05:17:45.013Z,21.00
2018-06-02T05:18:45.212Z,21.60
2018-06-02T05:19:45.413Z,20.60
2018-06-02T05:20:45.670Z,20.90
2018-06-02T05:21:45.822Z,19.70
2018-06-02T05:22:46.013Z,20.70
2018-06-02T05:23:46.249Z,19.90
2018-06-02T05:24:46.400Z,20.80
2018-06-02T05:25:46.612Z,19.50
2018-06-02T05:26:46.989Z,20.40
2018-06-02T05:27:47.075Z,20.10
2018-06-02T05:28:47.264Z,19.40
2018-06-02T05:29:47.460Z,19.80
2018-06-02T05:30:47.668Z,20.80
2018-06-02T05:31:47.886Z,19.30
2018-06-02T05:32:48.073Z,19.00
2018-06-02T05:33:48.270Z,20.70
2018-06-02T05:34:48.556Z,20.10
2018-06-02T05:35:48.679Z,19.00
2018-06-02T05:36:48.895Z,20.30
2018-06-02T05:37:49.101Z,19.90
2018-06-02T05:38:49.298Z,19.20
2018-06-02T05:39:49.500Z,19.40
2018-06-02T05:40:49.689Z,19.50
2018-06-02T05:41:49.877Z,19.30
2018-06-02T05:42:50.081Z,19.60
2018-06-02T05:43:50.300Z,18.90
2018-06-02T05:44:50.507Z,19.90
2018-06-02T05:45:50.729Z,18.80
2018-06-02T05:46:50.892Z,21.90
2018-06-02T05:47:51.090Z,20.80
2018-06-02T05:48:51.303Z,20.20
2018-06-02T05:49:51.503Z,19.40
2018-06-02T05:50:51.719Z,19.30
2018-06-02T05:51:51.967Z,19.00
2018-06-02T05:52:52.190Z,19.60
2018-06-02T05:53:52.404Z,19.20
2018-06-02T05:54:52.620Z,20.70
2018-06-02T05:55:52.833Z,21.30
2018-06-02T05:56:53.044Z,19.90
2018-06-02T05:57:53.231Z,21.10
2018-06-02T05:58:53.441Z,20.30
2018-06-02T05:59:53.699Z,22.50
2018-06-02T06:00:53.868Z,21.00
2018-06-02T06:01:54.073Z,20.90
2018-06-02T06:02:54.261Z,20.70
2018-06-02T06:03:54.457Z,21.30
2018-06-02T06:04:54.662Z,20.40
2018-06-02T06:05:54.860Z,22.00
2018-06-02T06:06:55.068Z,21.50
2018-06-02T06:07:55.276Z,21.20
2018-06-02T06:08:55.492Z,20.90
2018-06-02T06:09:55.696Z,20.90
2018-06-02T06:10:55.899Z,22.30
2018-06-02T06:11:56.106Z,22.20
2018-06-02T06:12:56.319Z,22.50
2018-06-02T06:13:56.519Z,22.10
2018-06-02T06:14:56.735Z,22.50
2018-06-02T06:15:56.944Z,21.80
2018-06-02T06:16:57.131Z,20.70
2018-06-02T06:17:57.351Z,19.90
2018-06-02T06:18:57.567Z,19.40
2018-06-02T06:19:57.772Z,19.80
2018-06-02T06:20:57.961Z,17.20
2018-06-02T06:21:58.148Z,17.50
2018-06-02T06:22:58.362Z,17.40
2018-06-02T06:25:32.257Z,17.60
2018-06-02T06:26:30.691Z,18.70
2018-06-02T06:27:30.900Z,16.50
2018-06-02T06:28:31.220Z,17.60
2018-06-02T06:29:31.276Z,16.60
2018-06-02T06:30:31.495Z,18.00
2018-06-02T06:31:31.687Z,18.20
2018-06-02T06:32:31.894Z,17.50
2018-06-02T06:33:32.099Z,17.30
2018-06-02T06:34:32.341Z,16.90
2018-06-02T06:35:32.516Z,16.60
2018-06-02T06:36:32.693Z,17.70
2018-06-02T06:37:32.892Z,17.00
2018-06-02T06:38:33.070Z,17.20
2018-06-02T06:39:33.282Z,17.80
2018-06-02T06:40:33.493Z,16.30
2018-06-02T06:41:33.688Z,17.90
2018-06-02T06:42:33.900Z,17.40
2018-06-02T06:43:34.112Z,16.10
2018-06-02T06:44:34.384Z,17.80
2018-06-02T06:45:34.502Z,16.70
2018-06-02T06:46:34.749Z,17.70
2018-06-02T06:47:34.924Z,18.10
2018-06-02T06:48:35.115Z,17.40
2018-06-02T06:49:35.320Z,17.30
2018-06-02T06:50:35.520Z,17.00
2018-06-02T06:51:35.698Z,16.80
2018-06-02T06:52:35.913Z,17.10
2018-06-02T06:53:36.108Z,16.60
2018-06-02T06:54:36.304Z,17.20
2018-06-02T06:55:36.491Z,16.00
2018-06-02T06:56:36.682Z,17.40
2018-06-02T06:57:36.907Z,15.70
2018-06-02T06:58:37.095Z,16.10
2018-06-02T06:59:37.277Z,16.00
2018-06-02T07:00:37.514Z,15.00
2018-06-02T07:01:37.711Z,17.10
2018-06-02T07:02:37.919Z,15.80
2018-06-02T07:03:38.131Z,15.70
2018-06-02T07:04:38.346Z,15.00
2018-06-02T07:05:38.542Z,15.30
2018-06-02T07:06:38.736Z,15.80
2018-06-02T07:07:38.930Z,15.20
2018-06-02T07:08:39.156Z,15.60
2018-06-02T07:09:39.362Z,16.80
2018-06-02T07:10:39.550Z,16.30
2018-06-02T07:11:39.773Z,15.70
2018-06-02T07:12:39.976Z,15.60
2018-06-02T07:13:40.187Z,15.60
2018-06-02T07:14:40.379Z,14.60
2018-06-02T07:15:40.603Z,15.40
2018-06-02T07:16:40.793Z,15.00
2018-06-02T07:17:41.004Z,14.50
2018-06-02T07:18:41.206Z,14.30
2018-06-02T07:19:41.400Z,15.00
2018-06-02T07:20:41.612Z,14.20
2018-06-02T07:21:41.871Z,14.60
2018-06-02T07:22:42.023Z,15.30
2018-06-02T07:23:42.227Z,14.70
2018-06-02T07:24:42.470Z,13.80
2018-06-02T07:25:42.672Z,15.10
2018-06-02T07:26:42.885Z,14.40
2018-06-02T07:27:43.083Z,16.20
2018-06-02T07:28:43.304Z,15.40
2018-06-02T07:29:43.523Z,15.10
2018-06-02T07:30:43.733Z,16.00
2018-06-02T07:31:43.946Z,15.30
2018-06-02T07:32:44.140Z,14.20
2018-06-02T07:33:44.350Z,15.90
2018-06-02T07:34:44.559Z,15.20
2018-06-02T07:35:44.755Z,15.20
2018-06-02T07:36:44.970Z,14.20
2018-06-02T07:37:45.182Z,15.10
2018-06-02T07:38:45.397Z,14.40
2018-06-02T07:39:45.608Z,14.90
2018-06-02T07:40:45.818Z,14.90
2018-06-02T07:41:46.030Z,14.80
2018-06-02T07:42:46.172Z,14.60
2018-06-02T07:43:46.379Z,14.50
2018-06-02T07:44:46.582Z,15.00
2018-06-02T07:45:46.820Z,14.40
2018-06-02T07:46:47.610Z,14.60
2018-06-02T07:47:47.166Z,14.30
2018-06-02T07:48:47.377Z,14.00
2018-06-02T07:49:47.621Z,14.40
2018-06-02T07:50:47.791Z,13.30
2018-06-02T07:51:47.983Z,14.00
2018-06-02T07:52:48.170Z,13.20
2018-06-02T07:53:48.362Z,13.90
2018-06-02T07:54:48.570Z,14.20
2018-06-02T07:55:48.787Z,14.30
2018-06-02T07:56:48.997Z,14.00
2018-06-02T07:57:49.209Z,13.80
2018-06-02T07:58:49.408Z,14.00
2018-06-02T07:59:49.629Z,13.50
2018-06-02T08:00:49.833Z,12.80
2018-06-02T08:01:50.043Z,13.60
2018-06-02T08:02:50.253Z,13.90
2018-06-02T08:03:50.472Z,13.60
2018-06-02T08:04:50.670Z,13.30
2018-06-02T08:05:50.868Z,13.80
2018-06-02T08:06:51.082Z,13.70
2018-06-02T08:07:51.305Z,13.00
2018-06-02T08:08:51.511Z,13.30
2018-06-02T08:09:51.728Z,13.20
2018-06-02T08:10:51.956Z,13.10
2018-06-02T08:11:52.140Z,13.70
2018-06-02T08:12:52.339Z,12.60
2018-06-02T08:13:52.515Z,12.80
2018-06-02T08:14:52.697Z,13.60
2018-06-02T08:15:52.900Z,12.10
2018-06-02T08:16:53.103Z,12.40
2018-06-02T08:17:53.313Z,11.50
2018-06-02T08:18:53.557Z,12.10
2018-06-02T08:19:53.770Z,11.60
2018-06-02T08:20:53.970Z,11.90
2018-06-02T08:21:54.173Z,11.30
2018-06-02T08:22:54.385Z,11.30
2018-06-02T08:23:54.603Z,10.90
2018-06-02T08:24:54.792Z,12.00
2018-06-02T08:25:55.001Z,11.00
2018-06-02T08:26:55.228Z,11.70
2018-06-02T08:27:55.430Z,10.70
2018-06-02T08:28:55.646Z,10.30
2018-06-02T08:29:55.845Z,11.00
2018-06-02T08:30:56.058Z,10.40
2018-06-02T08:31:56.255Z,11.30
2018-06-02T08:32:56.447Z,11.60
2018-06-02T08:33:56.688Z,11.00
2018-06-02T08:34:56.868Z,12.30
2018-06-02T08:35:57.071Z,11.20
2018-06-02T08:38:29.821Z,11.20
2018-06-02T08:39:29.631Z,11.20
2018-06-02T08:40:29.855Z,10.40
2018-06-02T08:41:30.062Z,11.00
2018-06-02T08:42:30.282Z,12.10
2018-06-02T08:43:30.478Z,12.40
2018-06-02T08:44:30.674Z,12.60
2018-06-02T08:45:30.886Z,12.30
2018-06-02T08:46:31.192Z,11.80
2018-06-02T08:47:31.314Z,12.00
2018-06-02T08:48:31.532Z,11.10
2018-06-02T08:49:31.740Z,11.80
2018-06-02T08:50:31.933Z,11.40
2018-06-02T08:51:32.141Z,12.30
2018-06-02T08:52:32.336Z,11.50
2018-06-02T08:53:32.548Z,11.30
2018-06-02T08:54:32.763Z,11.50
2018-06-02T08:57:04.957Z,12.10
2018-06-02T08:58:05.237Z,12.10
2018-06-02T08:59:05.306Z,11.40
2018-06-02T09:00:05.513Z,12.10
2018-06-02T09:01:05.705Z,10.20
2018-06-02T09:03:37.530Z,10.30
2018-06-02T09:04:37.713Z,9.60
2018-06-02T09:05:37.927Z,9.00
2018-06-02T09:06:38.188Z,8.90
2018-06-02T09:07:38.317Z,8.70
2018-06-02T09:08:38.503Z,7.50
2018-06-02T09:09:38.747Z,7.50
2018-06-02T09:10:38.938Z,6.60
2018-06-02T09:11:39.150Z,6.50
2018-06-02T09:12:39.349Z,6.40
2018-06-02T09:13:39.600Z,6.00
2018-06-02T09:14:39.811Z,7.30
2018-06-02T09:15:40.082Z,8.40
2018-06-02T09:16:40.258Z,7.70
2018-06-02T09:17:40.474Z,7.70
2018-06-02T09:18:40.665Z,8.40
2018-06-02T09:19:40.866Z,8.00
2018-06-02T09:20:41.055Z,7.80
2018-06-02T09:21:41.319Z,8.10
2018-06-02T09:22:41.458Z,8.00
2018-06-02T09:23:41.667Z,8.20
2018-06-02T09:24:41.863Z,7.80
2018-06-02T09:25:42.080Z,7.50
2018-06-02T09:26:42.280Z,8.40
2018-06-02T09:27:42.504Z,7.80
2018-06-02T09:28:42.708Z,7.70
2018-06-02T09:29:42.901Z,8.10
2018-06-02T09:30:43.115Z,7.80
2018-06-02T09:31:43.318Z,9.10
2018-06-02T09:32:43.628Z,8.10
2018-06-02T09:33:43.733Z,8.00
2018-06-02T09:34:43.935Z,7.50
2018-06-02T09:35:44.157Z,6.90
2018-06-02T09:36:44.365Z,7.20
2018-06-02T09:37:44.584Z,7.40
2018-06-02T09:38:44.796Z,7.40
2018-06-02T09:39:44.992Z,6.70
2018-06-02T09:42:17.141Z,6.00
2018-06-02T09:43:17.327Z,5.90
2018-06-02T09:44:17.520Z,6.10
2018-06-02T09:45:17.730Z,6.10
2018-06-02T09:46:17.919Z,6.20
2018-06-02T09:47:18.115Z,6.00
2018-06-02T09:48:18.331Z,6.30
2018-06-02T09:49:18.540Z,6.70
2018-06-02T09:50:18.760Z,7.10
2018-06-02T09:51:18.977Z,6.30
2018-06-02T09:52:19.178Z,6.60
2018-06-02T09:53:19.388Z,6.50
2018-06-02T09:54:19.603Z,6.40
2018-06-02T09:55:19.843Z,7.00
2018-06-02T09:56:20.037Z,7.20
2018-06-02T09:57:20.258Z,7.00
2018-06-02T09:59:52.563Z,6.50
2018-06-02T10:00:52.778Z,6.60
2018-06-02T10:01:52.990Z,6.20
2018-06-02T10:02:53.206Z,7.60
2018-06-02T10:03:53.410Z,7.50
2018-06-02T10:04:53.639Z,7.20
2018-06-02T10:05:53.868Z,7.00
2018-06-02T10:06:54.059Z,7.60
2018-06-02T10:07:54.282Z,7.10
2018-06-02T10:08:54.497Z,7.30
2018-06-02T10:09:54.708Z,7.80
2018-06-02T10:10:54.915Z,7.00
2018-06-02T10:11:55.134Z,7.30
2018-06-02T10:12:55.324Z,6.70
2018-06-02T10:13:55.547Z,6.70
2018-06-02T10:14:55.761Z,7.20
2018-06-02T10:15:55.957Z,9.00
2018-06-02T10:16:56.160Z,7.70
2018-06-02T10:17:56.368Z,8.00
2018-06-02T10:18:56.568Z,7.30
2018-06-02T10:19:56.824Z,8.20
2018-06-02T10:20:57.020Z,8.10
2018-06-02T10:21:57.225Z,8.50
2018-06-02T10:22:57.439Z,8.10
2018-06-02T10:23:57.665Z,8.30
2018-06-02T10:24:57.878Z,7.90
2018-06-02T10:25:58.089Z,8.60
2018-06-02T10:28:30.400Z,9.10
2018-06-02T10:29:30.520Z,8.60
2018-06-02T10:30:30.666Z,9.10
2018-06-02T10:31:30.882Z,9.00
2018-06-02T10:32:31.080Z,9.40
2018-06-02T10:33:31.266Z,9.40
2018-06-02T10:34:31.474Z,9.40
2018-06-02T10:35:31.747Z,9.90
2018-06-02T10:36:31.904Z,9.60
2018-06-02T10:37:32.143Z,10.10
2018-06-02T10:38:32.290Z,10.40
2018-06-02T10:39:32.516Z,9.90
2018-06-02T10:40:32.739Z,10.20
2018-06-02T10:41:32.931Z,9.80
2018-06-02T10:42:33.152Z,9.60
2018-06-02T10:43:33.362Z,9.20
2018-06-02T10:44:33.629Z,10.30
2018-06-02T10:45:33.782Z,9.80
2018-06-02T10:46:33.994Z,10.30
2018-06-02T10:47:34.199Z,10.00
2018-06-02T10:48:34.412Z,11.10
2018-06-02T10:49:34.631Z,10.50
2018-06-02T10:50:34.833Z,10.80
2018-06-02T10:51:35.044Z,9.80
2018-06-02T10:52:35.257Z,10.20
2018-06-02T10:53:35.473Z,10.30
2018-06-02T10:54:35.711Z,10.40
2018-06-02T10:55:35.941Z,9.00
2018-06-02T10:56:36.138Z,10.60
2018-06-02T10:57:36.351Z,9.90
2018-06-02T10:58:36.554Z,10.30
2018-06-02T10:59:36.771Z,10.70
2018-06-02T11:00:36.965Z,9.70
2018-06-02T11:01:37.174Z,11.30
2018-06-02T11:02:37.386Z,10.50
2018-06-02T11:03:37.590Z,9.70
2018-06-02T11:04:37.784Z,9.80
2018-06-02T11:05:37.982Z,10.60
2018-06-02T11:06:38.208Z,9.70
2018-06-02T11:07:38.423Z,9.40
2018-06-02T11:08:38.614Z,10.40
2018-06-02T11:09:38.835Z,10.30
2018-06-02T11:10:39.025Z,10.50
2018-06-02T11:11:39.249Z,10.00
2018-06-02T11:12:39.444Z,9.60
2018-06-02T11:13:39.645Z,9.80
2018-06-02T11:14:39.835Z,9.40
2018-06-02T11:15:40.063Z,9.50
2018-06-02T11:16:40.253Z,10.00
2018-06-02T11:17:40.477Z,9.60
2018-06-02T11:18:40.694Z,10.60
2018-06-02T11:19:40.892Z,8.80
2018-06-02T11:20:41.108Z,8.80
2018-06-02T11:21:41.330Z,9.10
2018-06-02T11:22:41.639Z,9.00
2018-06-02T11:23:41.719Z,8.80
2018-06-02T11:24:41.930Z,9.50
2018-06-02T11:25:42.180Z,8.90
2018-06-02T11:26:42.343Z,8.40
2018-06-02T11:27:42.559Z,9.00
2018-06-02T11:28:42.738Z,8.80
2018-06-02T11:29:42.950Z,8.70
2018-06-02T11:30:43.165Z,8.50
2018-06-02T11:31:43.372Z,8.30
2018-06-02T11:32:43.599Z,8.20
2018-06-02T11:33:43.811Z,9.30
2018-06-02T11:34:44.005Z,8.90
2018-06-02T11:35:44.202Z,8.70
2018-06-02T11:36:44.403Z,8.40
2018-06-02T11:37:44.605Z,9.10
2018-06-02T11:40:16.445Z,10.00
2018-06-02T11:41:16.625Z,10.20
2018-06-02T11:42:16.845Z,10.50
2018-06-02T11:43:17.050Z,10.70
2018-06-02T11:44:17.266Z,10.10
2018-06-02T11:45:17.455Z,10.10
2018-06-02T11:46:17.703Z,10.40
2018-06-02T11:47:17.907Z,10.40
2018-06-02T11:48:18.113Z,10.50
2018-06-02T11:49:18.339Z,10.00
2018-06-02T11:50:18.554Z,10.80
2018-06-02T11:51:18.762Z,10.70
2018-06-02T11:52:18.970Z,10.50
2018-06-02T11:53:19.171Z,10.40
2018-06-02T11:54:19.404Z,10.90
2018-06-02T11:55:19.621Z,11.00
2018-06-02T11:56:19.821Z,11.10
2018-06-02T11:57:20.030Z,10.90
2018-06-02T11:58:20.231Z,10.70
2018-06-02T11:59:20.437Z,11.10
2018-06-02T12:01:53.272Z,11.30
2018-06-02T12:02:53.314Z,11.50
2018-06-02T12:03:53.524Z,11.10
2018-06-02T12:04:53.720Z,10.80
2018-06-02T12:05:53.928Z,10.70
2018-06-02T12:06:54.205Z,10.80
2018-06-02T12:07:54.342Z,10.80
2018-06-02T12:08:54.538Z,10.90
2018-06-02T12:09:54.750Z,10.60
2018-06-02T12:10:54.945Z,10.70
2018-06-02T12:11:55.162Z,10.50
2018-06-02T12:12:55.372Z,11.40
2018-06-02T12:13:55.590Z,11.50
2018-06-02T12:14:55.784Z,10.30
2018-06-02T12:15:55.986Z,11.80
2018-06-02T12:16:56.199Z,10.80
2018-06-02T12:17:56.405Z,10.30
2018-06-02T12:18:56.587Z,10.80
2018-06-02T12:19:56.785Z,10.70
2018-06-02T12:20:56.982Z,11.40
2018-06-02T12:21:57.188Z,11.30
2018-06-02T12:22:57.382Z,12.50
2018-06-02T12:23:57.603Z,12.30
2018-06-02T12:24:57.803Z,12.70
2018-06-02T12:25:58.023Z,12.40
2018-06-02T12:26:58.230Z,13.60
2018-06-02T12:27:58.427Z,13.10
2018-06-02T12:28:58.634Z,12.60
2018-06-02T12:29:58.847Z,12.10
2018-06-02T12:30:59.056Z,12.80
2018-06-02T12:31:59.263Z,14.30
2018-06-02T12:34:31.139Z,14.70
2018-06-02T12:35:31.325Z,14.50
2018-06-02T12:36:31.514Z,14.50
2018-06-02T12:37:31.730Z,15.00
2018-06-02T12:38:31.923Z,15.30
2018-06-02T12:39:32.118Z,15.40
2018-06-02T12:40:32.306Z,15.00
2018-06-02T12:41:32.506Z,15.30
2018-06-02T12:42:32.723Z,15.90
2018-06-02T12:43:32.923Z,16.20
2018-06-02T12:44:33.117Z,16.70
2018-06-02T12:45:33.332Z,16.00
2018-06-02T12:46:33.583Z,15.50
2018-06-02T12:47:33.793Z,15.70
2018-06-02T12:48:34.013Z,15.80
2018-06-02T12:49:34.253Z,15.80
2018-06-02T12:50:34.451Z,16.30
2018-06-02T12:51:34.661Z,15.50
2018-06-02T12:52:34.872Z,15.70
2018-06-02T12:53:35.094Z,15.80
2018-06-02T12:54:35.303Z,15.50
2018-06-02T12:55:35.622Z,17.20
2018-06-02T12:56:35.713Z,16.20
2018-06-02T12:57:35.911Z,17.30
2018-06-02T12:58:36.113Z,16.50
2018-06-02T12:59:36.331Z,16.80
2018-06-02T13:00:36.526Z,17.90
2018-06-02T13:01:36.739Z,18.10
2018-06-02T13:02:36.956Z,17.90
2018-06-02T13:03:37.162Z,17.20
2018-06-02T13:06:17.572Z,17.70
2018-06-02T13:07:09.486Z,17.40
2018-06-02T13:08:09.698Z,17.50
2018-06-02T13:09:09.914Z,17.60
2018-06-02T13:10:10.131Z,18.10
2018-06-02T13:11:10.324Z,18.00
2018-06-02T13:12:10.543Z,17.50
2018-06-02T13:13:10.744Z,16.40
2018-06-02T13:14:10.973Z,18.50
2018-06-02T13:15:11.175Z,19.50
2018-06-02T13:16:11.383Z,20.00
2018-06-02T13:17:11.574Z,18.30
2018-06-02T13:18:11.787Z,19.00
2018-06-02T13:19:12.002Z,22.00
2018-06-02T13:20:12.207Z,22.40
2018-06-02T13:21:12.428Z,21.50
2018-06-02T13:22:12.631Z,24.60
2018-06-02T13:23:12.835Z,22.80
2018-06-02T13:24:13.024Z,20.80
2018-06-02T13:25:13.233Z,21.50